createdAt,value
2022-09-10T00:00:06.614Z,48.78
2022-09-10T00:01:06.631Z,48.97
2022-09-10T00:02:06.677Z,49.01
2022-09-10T00:04:06.632Z,49.08
2022-09-10T00:05:06.621Z,49.06
2022-09-10T00:06:06.630Z,49.12
2022-09-10T00:08:06.680Z,49.24
2022-09-10T00:09:06.629Z,49.25
2022-09-10T00:10:06.633Z,49.25
2022-09-10T00:11:06.634Z,49.33
2022-09-10T00:12:06.786Z,49.27
2022-09-10T00:13:06.670Z,49.24
2022-09-10T00:14:06.632Z,49.24
2022-09-10T00:15:06.643Z,49.24
2022-09-10T00:16:06.693Z,49.19
2022-09-10T00:17:06.668Z,49.08
2022-09-10T00:18:06.672Z,49.05
2022-09-10T00:19:06.672Z,49.06
2022-09-10T00:20:06.673Z,49.07
2022-09-10T00:21:06.662Z,49.17
2022-09-10T00:22:06.657Z,49.26
2022-09-10T00:23:06.686Z,49.39
2022-09-10T00:24:07.204Z,49.41
2022-09-10T00:25:08.454Z,49.41
2022-09-10T00:26:06.683Z,49.43
2022-09-10T00:27:06.685Z,49.54
2022-09-10T00:28:06.719Z,49.54
2022-09-10T00:29:06.703Z,49.58
2022-09-10T00:30:06.684Z,49.68
2022-09-10T00:32:06.689Z,49.93
2022-09-10T00:34:06.718Z,49.97
2022-09-10T00:35:06.711Z,49.98
2022-09-10T00:36:06.712Z,50.14
2022-09-10T00:37:06.738Z,50.01
2022-09-10T00:38:06.725Z,50.08
2022-09-10T00:39:06.746Z,50.08
2022-09-10T00:40:06.755Z,50.15
2022-09-10T00:41:06.717Z,50.15
2022-09-10T00:42:06.745Z,50.36
2022-09-10T00:43:06.716Z,50.36
2022-09-10T00:44:06.744Z,50.68
2022-09-10T00:47:06.736Z,50.79
2022-09-10T00:49:06.769Z,51.00
2022-09-10T00:50:06.739Z,51.18
2022-09-10T00:51:06.738Z,51.10
2022-09-10T00:53:06.745Z,51.23
2022-09-10T00:54:06.762Z,51.30
2022-09-10T00:56:06.764Z,51.38
2022-09-10T00:58:06.769Z,51.45
2022-09-10T00:59:06.783Z,51.45
2022-09-10T01:01:07.612Z,51.88
2022-09-10T01:02:06.915Z,51.88
2022-09-10T01:04:06.800Z,51.70
2022-09-10T01:05:06.784Z,51.87
2022-09-10T01:06:06.769Z,51.87
2022-09-10T01:07:06.768Z,51.82
2022-09-10T01:08:06.779Z,51.74
2022-09-10T01:09:06.803Z,51.73
2022-09-10T01:10:06.784Z,51.67
2022-09-10T01:11:06.808Z,51.68
2022-09-10T01:12:06.807Z,51.62
2022-09-10T01:13:06.816Z,51.81
2022-09-10T01:14:06.823Z,52.06
2022-09-10T01:15:06.817Z,52.06
2022-09-10T01:16:06.898Z,52.46
2022-09-10T01:17:06.812Z,52.46
2022-09-10T01:18:06.827Z,52.53
2022-09-10T01:19:06.840Z,52.38
2022-09-10T01:20:06.803Z,52.38
2022-09-10T01:21:06.833Z,52.30
2022-09-10T01:22:06.838Z,52.30
2022-09-10T01:23:06.829Z,52.50
2022-09-10T01:24:06.861Z,52.51
2022-09-10T01:25:06.829Z,52.51
2022-09-10T01:26:06.832Z,52.37
2022-09-10T01:27:06.830Z,52.30
2022-09-10T01:28:06.839Z,52.30
2022-09-10T01:29:06.861Z,52.29
2022-09-10T01:30:06.836Z,52.28
2022-09-10T01:32:06.853Z,52.38
2022-09-10T01:33:06.855Z,52.63
2022-09-10T01:34:06.876Z,52.63
2022-09-10T01:35:06.853Z,52.53
2022-09-10T01:36:06.873Z,52.64
2022-09-10T01:37:06.857Z,52.58
2022-09-10T01:39:06.897Z,52.66
2022-09-10T01:40:06.939Z,52.68
2022-09-10T01:41:06.872Z,52.68
2022-09-10T01:42:06.877Z,52.58
2022-09-10T01:45:06.891Z,52.51
2022-09-10T01:46:06.881Z,52.51
2022-09-10T01:47:06.901Z,52.54
2022-09-10T01:48:06.883Z,52.54
2022-09-10T01:49:06.900Z,52.75
2022-09-10T01:50:06.925Z,53.05
2022-09-10T01:51:06.911Z,53.30
2022-09-10T01:53:06.900Z,53.72
2022-09-10T01:54:06.905Z,54.10
2022-09-10T01:55:06.935Z,54.42
2022-09-10T01:56:06.904Z,54.42
2022-09-10T01:57:06.927Z,55.30
2022-09-10T01:58:06.910Z,55.25
2022-09-10T01:59:06.925Z,55.49
2022-09-10T02:00:06.931Z,55.49
2022-09-10T02:01:06.975Z,55.79
2022-09-10T02:02:06.936Z,56.49
2022-09-10T02:03:06.943Z,56.76
2022-09-10T02:04:06.945Z,57.02
2022-09-10T02:05:06.963Z,57.46
2022-09-10T02:06:06.940Z,57.46
2022-09-10T02:07:06.925Z,57.61
2022-09-10T02:09:06.926Z,57.22
2022-09-10T02:10:06.974Z,57.14
2022-09-10T02:11:06.967Z,57.43
2022-09-10T02:12:06.953Z,57.80
2022-09-10T02:14:06.946Z,58.32
2022-09-10T02:16:07.006Z,58.11
2022-09-10T02:17:06.959Z,57.94
2022-09-10T02:18:06.959Z,58.29
2022-09-10T02:21:06.991Z,58.08
2022-09-10T02:22:06.975Z,58.29
2022-09-10T02:23:06.978Z,58.29
2022-09-10T02:24:06.981Z,57.98
2022-09-10T02:25:06.985Z,57.98
2022-09-10T02:26:07.020Z,58.43
2022-09-10T02:27:06.999Z,58.36
2022-09-10T02:28:07.006Z,58.36
2022-09-10T02:29:06.985Z,58.26
2022-09-10T02:30:06.982Z,58.16
2022-09-10T02:31:07.022Z,58.02
2022-09-10T02:33:07.010Z,58.02
2022-09-10T02:34:07.026Z,58.21
2022-09-10T02:35:07.008Z,58.21
2022-09-10T02:37:07.041Z,58.06
2022-09-10T02:38:07.019Z,57.87
2022-09-10T02:39:07.025Z,58.05
2022-09-10T02:40:07.049Z,58.05
2022-09-10T02:41:07.016Z,58.24
2022-09-10T02:42:07.037Z,58.24
2022-09-10T02:43:07.035Z,58.46
2022-09-10T02:44:07.043Z,58.35
2022-09-10T02:45:07.037Z,58.35
2022-09-10T02:46:07.032Z,58.30
2022-09-10T02:47:07.052Z,58.65
2022-09-10T02:48:07.038Z,58.77
2022-09-10T02:49:07.046Z,58.82
2022-09-10T02:50:07.045Z,58.82
2022-09-10T02:51:07.043Z,58.82
2022-09-10T02:52:07.998Z,58.28
2022-09-10T02:53:07.048Z,58.28
2022-09-10T02:55:07.053Z,58.45
2022-09-10T02:56:07.063Z,58.75
2022-09-10T02:57:07.073Z,58.69
2022-09-10T02:58:07.100Z,58.69
2022-09-10T02:59:07.056Z,58.42
2022-09-10T03:00:07.107Z,58.47
2022-09-10T03:02:07.227Z,58.79
2022-09-10T03:03:07.099Z,58.79
2022-09-10T03:04:07.083Z,58.61
2022-09-10T03:05:07.171Z,58.61
2022-09-10T03:06:07.100Z,58.70
2022-09-10T03:07:07.100Z,58.70
2022-09-10T03:08:07.108Z,58.57
2022-09-10T03:10:07.094Z,58.53
2022-09-10T03:11:07.119Z,58.44
2022-09-10T03:12:07.100Z,58.44
2022-09-10T03:13:07.135Z,58.51
2022-09-10T03:14:07.118Z,58.78
2022-09-10T03:15:07.119Z,58.58
2022-09-10T03:16:07.196Z,58.35
2022-09-10T03:18:07.149Z,58.15
2022-09-10T03:19:07.128Z,58.07
2022-09-10T03:20:07.110Z,58.07
2022-09-10T03:21:07.127Z,58.40
2022-09-10T03:22:07.120Z,58.40
2022-09-10T03:23:07.160Z,58.48
2022-09-10T03:24:08.708Z,58.64
2022-09-10T03:25:07.133Z,58.63
2022-09-10T03:26:07.145Z,58.54
2022-09-10T03:27:07.133Z,58.54
2022-09-10T03:28:07.177Z,58.43
2022-09-10T03:29:08.177Z,58.61
2022-09-10T03:30:07.152Z,58.61
2022-09-10T03:34:07.162Z,58.66
2022-09-10T03:35:07.166Z,58.58
2022-09-10T03:36:07.164Z,58.58
2022-09-10T03:38:07.179Z,58.36
2022-09-10T03:39:07.207Z,58.37
2022-09-10T03:40:07.235Z,58.40
2022-09-10T03:41:07.170Z,58.40
2022-09-10T03:42:07.168Z,58.70
2022-09-10T03:44:07.216Z,58.59
2022-09-10T03:45:07.195Z,58.46
2022-09-10T03:46:07.262Z,58.38
2022-09-10T03:47:07.203Z,58.39
2022-09-10T03:48:07.198Z,58.39
2022-09-10T03:50:07.232Z,58.19
2022-09-10T03:51:07.207Z,58.42
2022-09-10T03:52:07.193Z,58.67
2022-09-10T03:55:07.241Z,58.66
2022-09-10T03:56:07.217Z,58.66
2022-09-10T03:59:07.218Z,58.79
2022-09-10T04:01:07.314Z,58.70
2022-09-10T04:02:07.287Z,58.71
2022-09-10T04:03:07.237Z,58.76
2022-09-10T04:04:07.236Z,58.80
2022-09-10T04:05:07.230Z,58.89
2022-09-10T04:06:08.405Z,59.00
2022-09-10T04:08:07.238Z,58.96
2022-09-10T04:10:07.242Z,58.75
2022-09-10T04:11:07.244Z,58.60
2022-09-10T04:12:07.284Z,58.52
2022-09-10T04:14:07.248Z,58.76
2022-09-10T04:15:07.254Z,58.93
2022-09-10T04:16:07.353Z,58.96
2022-09-10T04:19:07.316Z,59.05
2022-09-10T04:22:07.290Z,59.24
2022-09-10T04:23:07.284Z,59.30
2022-09-10T04:25:07.297Z,59.30
2022-09-10T04:26:07.279Z,59.21
2022-09-10T04:30:07.333Z,58.80
2022-09-10T04:31:07.304Z,58.80
2022-09-10T04:32:07.299Z,58.81
2022-09-10T04:33:07.298Z,58.95
2022-09-10T04:34:07.316Z,58.95
2022-09-10T04:37:07.345Z,58.87
2022-09-10T04:38:07.337Z,59.04
2022-09-10T04:42:07.359Z,59.06
2022-09-10T04:43:08.557Z,59.04
2022-09-10T04:44:07.351Z,59.00
2022-09-10T04:45:07.333Z,59.00
2022-09-10T04:47:07.358Z,59.01
2022-09-10T04:50:07.348Z,59.29
2022-09-10T04:53:07.367Z,59.96
2022-09-10T04:56:07.357Z,60.11
2022-09-10T04:58:07.393Z,60.08
2022-09-10T05:00:07.362Z,59.99
2022-09-10T05:01:07.425Z,60.09
2022-09-10T05:02:07.422Z,59.92
2022-09-10T05:05:07.395Z,60.32
2022-09-10T05:06:07.391Z,60.10
2022-09-10T05:07:07.388Z,60.27
2022-09-10T05:08:07.391Z,60.14
2022-09-10T05:10:07.437Z,60.00
2022-09-10T05:13:07.416Z,60.30
2022-09-10T05:15:07.441Z,60.19
2022-09-10T05:16:07.465Z,60.29
2022-09-10T05:17:07.421Z,60.29
2022-09-10T05:18:07.438Z,60.45
2022-09-10T05:20:08.801Z,60.43
2022-09-10T05:25:07.432Z,60.82
2022-09-10T05:26:07.452Z,60.88
2022-09-10T05:27:07.437Z,61.14
2022-09-10T05:33:07.494Z,60.83
2022-09-10T05:34:07.468Z,60.87
2022-09-10T05:36:07.460Z,61.08
2022-09-10T05:37:07.463Z,61.00
2022-09-10T05:38:07.487Z,61.00
2022-09-10T05:40:07.511Z,61.20
2022-09-10T05:41:07.470Z,61.20
2022-09-10T05:42:07.494Z,60.95
2022-09-10T05:43:07.488Z,60.95
2022-09-10T05:44:07.495Z,60.90
2022-09-10T05:45:07.478Z,60.90
2022-09-10T05:47:07.509Z,61.66
2022-09-10T05:48:07.509Z,61.66
2022-09-10T05:50:07.489Z,61.42
2022-09-10T05:52:07.497Z,61.42
2022-09-10T05:53:07.519Z,61.34
2022-09-10T05:54:07.504Z,61.38
2022-09-10T05:55:07.529Z,61.07
2022-09-10T05:56:07.504Z,61.07
2022-09-10T06:00:07.555Z,60.59
2022-09-10T06:01:07.532Z,60.62
2022-09-10T06:02:07.663Z,60.58
2022-09-10T06:03:07.679Z,60.58
2022-09-10T06:04:07.528Z,60.50
2022-09-10T06:05:07.572Z,60.44
2022-09-10T06:06:07.533Z,60.44
2022-09-10T06:07:07.545Z,60.63
2022-09-10T06:08:09.029Z,60.39
2022-09-10T06:09:07.540Z,60.32
2022-09-10T06:10:07.568Z,60.32
2022-09-10T06:11:07.561Z,60.30
2022-09-10T06:12:07.564Z,60.42
2022-09-10T06:13:07.556Z,60.32
2022-09-10T06:15:07.583Z,59.98
2022-09-10T06:16:07.590Z,59.93
2022-09-10T06:18:07.568Z,59.42
2022-09-10T06:19:07.578Z,59.59
2022-09-10T06:20:07.619Z,59.66
2022-09-10T06:21:07.581Z,59.50
2022-09-10T06:24:07.585Z,59.31
2022-09-10T06:25:07.609Z,59.45
2022-09-10T06:26:07.611Z,59.71
2022-09-10T06:27:07.579Z,59.71
2022-09-10T06:29:07.600Z,59.89
2022-09-10T06:30:07.643Z,59.89
2022-09-10T06:31:07.635Z,59.84
2022-09-10T06:32:07.600Z,59.91
2022-09-10T06:33:07.627Z,60.02
2022-09-10T06:34:09.174Z,59.93
2022-09-10T06:35:07.637Z,59.93
2022-09-10T06:36:07.607Z,60.09
2022-09-10T06:37:07.600Z,59.69
2022-09-10T06:38:07.628Z,59.77
2022-09-10T06:39:07.619Z,59.77
2022-09-10T06:40:07.706Z,60.15
2022-09-10T06:42:07.642Z,59.53
2022-09-10T06:44:07.650Z,59.79
2022-09-10T06:45:07.664Z,59.70
2022-09-10T06:48:38.361Z,59.32
2022-09-10T06:49:07.664Z,59.58
2022-09-10T06:50:07.680Z,59.68
2022-09-10T06:51:07.658Z,59.68
2022-09-10T06:52:07.653Z,59.44
2022-09-10T06:53:07.661Z,59.50
2022-09-10T06:54:07.673Z,59.29
2022-09-10T06:55:07.686Z,59.29
2022-09-10T06:56:07.662Z,59.27
2022-09-10T06:57:07.660Z,59.18
2022-09-10T06:58:07.665Z,59.04
2022-09-10T07:00:07.689Z,58.85
2022-09-10T07:01:14.971Z,59.18
2022-09-10T07:02:07.735Z,58.99
2022-09-10T07:03:07.729Z,58.99
2022-09-10T07:05:07.713Z,58.83
2022-09-10T07:06:07.707Z,59.06
2022-09-10T07:07:07.696Z,59.06
2022-09-10T07:08:07.719Z,58.99
2022-09-10T07:09:07.732Z,58.71
2022-09-10T07:10:07.706Z,58.78
2022-09-10T07:14:07.720Z,58.53
2022-09-10T07:15:07.766Z,58.58
2022-09-10T07:16:07.785Z,58.43
2022-09-10T07:17:07.723Z,58.43
2022-09-10T07:18:07.727Z,58.53
2022-09-10T07:20:07.769Z,58.74
2022-09-10T07:22:07.735Z,58.56
2022-09-10T07:23:11.077Z,58.71
2022-09-10T07:24:07.740Z,58.66
2022-09-10T07:25:07.787Z,58.58
2022-09-10T07:26:07.740Z,58.58
2022-09-10T07:27:07.751Z,58.09
2022-09-10T07:28:07.758Z,58.09
2022-09-10T07:29:07.762Z,58.01
2022-09-10T07:30:07.799Z,57.42
2022-09-10T07:31:07.804Z,56.78
2022-09-10T07:32:10.562Z,56.78
2022-09-10T07:33:07.767Z,56.60
2022-09-10T07:34:07.769Z,55.33
2022-09-10T07:35:07.796Z,56.01
2022-09-10T07:36:07.800Z,56.37
2022-09-10T07:38:07.785Z,56.52
2022-09-10T07:39:07.786Z,56.52
2022-09-10T07:40:07.837Z,56.39
2022-09-10T07:41:07.771Z,56.11
2022-09-10T07:42:07.774Z,56.04
2022-09-10T07:43:07.782Z,55.70
2022-09-10T07:44:07.798Z,55.70
2022-09-10T07:45:07.823Z,55.85
2022-09-10T07:46:07.935Z,55.64
2022-09-10T07:47:07.796Z,55.64
2022-09-10T07:49:07.805Z,55.37
2022-09-10T07:50:07.853Z,55.51
2022-09-10T07:51:07.812Z,55.51
2022-09-10T07:52:07.806Z,55.44
2022-09-10T07:53:07.811Z,55.54
2022-09-10T07:54:07.833Z,55.50
2022-09-10T07:55:07.842Z,55.27
2022-09-10T07:56:07.836Z,55.05
2022-09-10T07:57:07.811Z,54.81
2022-09-10T07:58:07.840Z,54.81
2022-09-10T07:59:07.833Z,54.07
2022-09-10T08:00:07.890Z,52.98
2022-09-10T08:01:07.892Z,52.98
2022-09-10T08:02:07.909Z,52.76
2022-09-10T08:03:07.870Z,52.18
2022-09-10T08:04:07.879Z,50.64
2022-09-10T08:05:08.152Z,50.64
2022-09-10T08:06:07.842Z,49.80
2022-09-10T08:08:07.867Z,48.82
2022-09-10T08:09:07.868Z,48.31
2022-09-10T08:10:07.847Z,48.31
2022-09-10T08:11:11.807Z,49.70
2022-09-10T08:12:07.874Z,49.70
2022-09-10T08:13:07.859Z,49.85
2022-09-10T08:14:07.878Z,49.85
2022-09-10T08:15:07.887Z,49.96
2022-09-10T08:16:07.935Z,49.96
2022-09-10T08:17:07.919Z,50.32
2022-09-10T08:18:12.063Z,50.32
2022-09-10T08:19:07.885Z,50.46
2022-09-10T08:20:07.901Z,50.50
2022-09-10T08:21:07.911Z,50.73
2022-09-10T08:22:12.819Z,50.73
2022-09-10T08:23:07.886Z,50.69
2022-09-10T08:24:07.901Z,51.08
2022-09-10T08:25:09.738Z,50.70
2022-09-10T08:26:07.904Z,50.70
2022-09-10T08:27:07.884Z,51.06
2022-09-10T08:28:07.891Z,51.37
2022-09-10T08:29:07.911Z,51.59
2022-09-10T08:30:07.906Z,51.87
2022-09-10T08:31:08.118Z,51.87
2022-09-10T08:32:07.900Z,51.89
2022-09-10T08:33:07.918Z,51.96
2022-09-10T08:34:07.912Z,52.24
2022-09-10T08:36:07.943Z,52.36
2022-09-10T08:37:07.930Z,52.53
2022-09-10T08:38:07.925Z,52.53
2022-09-10T08:40:07.952Z,52.44
2022-09-10T08:41:07.982Z,52.46
2022-09-10T08:42:07.934Z,52.46
2022-09-10T08:43:07.931Z,52.72
2022-09-10T08:44:07.938Z,52.78
2022-09-10T08:45:07.943Z,52.78
2022-09-10T08:46:07.978Z,53.08
2022-09-10T08:47:07.959Z,53.18
2022-09-10T08:49:07.946Z,53.07
2022-09-10T08:50:07.951Z,52.66
2022-09-10T08:52:08.007Z,52.65
2022-09-10T08:54:07.980Z,53.29
2022-09-10T08:55:07.974Z,53.26
2022-09-10T08:56:07.964Z,52.55
2022-09-10T08:57:08.030Z,52.28
2022-09-10T08:58:07.984Z,52.08
2022-09-10T09:00:07.989Z,51.85
2022-09-10T09:01:08.065Z,52.06
2022-09-10T09:02:10.008Z,52.11
2022-09-10T09:03:08.009Z,52.02
2022-09-10T09:04:07.988Z,52.02
2022-09-10T09:05:08.021Z,51.91
2022-09-10T09:06:07.995Z,51.91
2022-09-10T09:07:08.015Z,51.51
2022-09-10T09:08:08.021Z,51.51
2022-09-10T09:09:11.231Z,51.83
2022-09-10T09:10:08.007Z,51.50
2022-09-10T09:11:08.023Z,51.24
2022-09-10T09:12:08.029Z,51.08
2022-09-10T09:13:08.049Z,51.19
2022-09-10T09:14:08.030Z,51.16
2022-09-10T09:15:09.098Z,51.16
2022-09-10T09:16:08.079Z,51.27
2022-09-10T09:17:08.012Z,51.27
2022-09-10T09:18:08.070Z,51.29
2022-09-10T09:19:08.040Z,51.32
2022-09-10T09:20:08.031Z,51.32
2022-09-10T09:21:08.055Z,51.10
2022-09-10T09:22:08.053Z,50.21
2022-09-10T09:23:08.089Z,49.57
2022-09-10T09:24:13.553Z,49.57
2022-09-10T09:25:08.038Z,49.58
2022-09-10T09:26:08.037Z,49.89
2022-09-10T09:27:08.040Z,48.72
2022-09-10T09:28:08.064Z,49.40
2022-09-10T09:29:08.100Z,48.51
2022-09-10T09:30:08.053Z,47.81
2022-09-10T09:31:09.635Z,47.81
2022-09-10T09:32:08.063Z,48.02
2022-09-10T09:33:08.063Z,47.11
2022-09-10T09:34:08.061Z,47.11
2022-09-10T09:35:08.128Z,45.86
2022-09-10T09:36:08.094Z,45.65
2022-09-10T09:37:08.084Z,45.65
2022-09-10T09:38:09.504Z,44.82
2022-09-10T09:39:10.215Z,43.84
2022-09-10T09:40:08.169Z,43.84
2022-09-10T09:41:08.093Z,43.61
2022-09-10T09:42:08.104Z,44.50
2022-09-10T09:43:08.083Z,44.50
2022-09-10T09:44:08.092Z,44.37
2022-09-10T09:45:08.121Z,43.31
2022-09-10T09:46:08.131Z,43.11
2022-09-10T09:47:08.118Z,43.36
2022-09-10T09:48:08.109Z,43.56
2022-09-10T09:49:08.151Z,43.60
2022-09-10T09:50:08.147Z,43.60
2022-09-10T09:51:08.114Z,43.39
2022-09-10T09:52:08.114Z,42.18
2022-09-10T09:53:08.119Z,42.64
2022-09-10T09:54:39.351Z,42.64
2022-09-10T09:55:14.893Z,43.05
2022-09-10T09:56:08.124Z,43.00
2022-09-10T09:57:08.124Z,43.28
2022-09-10T09:58:08.125Z,43.26
2022-09-10T09:59:11.854Z,43.08
2022-09-10T10:00:08.165Z,43.17
2022-09-10T10:01:08.178Z,43.17
2022-09-10T10:02:08.195Z,42.97
2022-09-10T10:03:08.137Z,42.97
2022-09-10T10:04:08.155Z,43.48
2022-09-10T10:05:08.170Z,43.48
2022-09-10T10:06:08.181Z,43.57
2022-09-10T10:07:08.147Z,43.72
2022-09-10T10:08:08.148Z,44.20
2022-09-10T10:09:08.148Z,44.20
2022-09-10T10:10:08.187Z,44.21
2022-09-10T10:11:08.171Z,44.45
2022-09-10T10:12:08.168Z,45.02
2022-09-10T10:13:08.186Z,45.02
2022-09-10T10:14:08.181Z,45.17
2022-09-10T10:16:10.491Z,45.17
2022-09-10T10:17:08.187Z,45.17
2022-09-10T10:18:08.207Z,45.36
2022-09-10T10:19:08.186Z,45.36
2022-09-10T10:20:08.179Z,44.99
2022-09-10T10:21:08.189Z,44.49
2022-09-10T10:22:08.247Z,44.59
2022-09-10T10:24:08.192Z,44.98
2022-09-10T10:25:08.190Z,44.98
2022-09-10T10:26:08.222Z,45.20
2022-09-10T10:27:08.238Z,45.44
2022-09-10T10:28:08.224Z,45.33
2022-09-10T10:29:08.206Z,45.20
2022-09-10T10:30:08.281Z,45.20
2022-09-10T10:31:08.270Z,44.82
2022-09-10T10:32:08.239Z,44.82
2022-09-10T10:33:08.230Z,44.58
2022-09-10T10:34:08.216Z,44.58
2022-09-10T10:35:08.214Z,44.73
2022-09-10T10:36:08.234Z,44.89
2022-09-10T10:37:08.255Z,44.89
2022-09-10T10:38:08.230Z,44.96
2022-09-10T10:39:08.238Z,45.16
2022-09-10T10:40:08.374Z,44.99
2022-09-10T10:41:08.245Z,44.89
2022-09-10T10:42:08.273Z,44.88
2022-09-10T10:43:08.244Z,44.88
2022-09-10T10:44:08.248Z,45.08
2022-09-10T10:45:08.250Z,45.08
2022-09-10T10:46:11.795Z,45.29
2022-09-10T10:47:08.274Z,45.27
2022-09-10T10:50:08.258Z,45.18
2022-09-10T10:51:08.279Z,44.93
2022-09-10T10:53:10.681Z,45.00
2022-09-10T10:54:08.273Z,45.00
2022-09-10T10:56:08.269Z,45.19
2022-09-10T10:57:08.285Z,45.28
2022-09-10T10:59:08.302Z,45.69
2022-09-10T11:00:08.310Z,46.14
2022-09-10T11:01:08.298Z,46.91
2022-09-10T11:03:08.287Z,47.70
2022-09-10T11:04:08.333Z,48.81
2022-09-10T11:05:08.304Z,51.14
2022-09-10T11:06:08.333Z,51.14
2022-09-10T11:07:08.339Z,51.56
2022-09-10T11:08:08.317Z,51.56
2022-09-10T11:09:08.605Z,52.27
2022-09-10T11:10:08.319Z,52.38
2022-09-10T11:11:08.328Z,52.38
2022-09-10T11:12:08.314Z,53.29
2022-09-10T11:13:08.329Z,53.34
2022-09-10T11:14:08.355Z,53.85
2022-09-10T11:15:08.348Z,53.85
2022-09-10T11:16:08.370Z,54.16
2022-09-10T11:17:08.326Z,54.16
2022-09-10T11:18:08.331Z,54.56
2022-09-10T11:19:08.363Z,53.57
2022-09-10T11:20:27.864Z,52.90
2022-09-10T11:21:08.344Z,53.55
2022-09-10T11:22:08.362Z,54.00
2022-09-10T11:23:08.362Z,54.28
2022-09-10T11:24:08.384Z,53.87
2022-09-10T11:25:08.368Z,54.08
2022-09-10T11:26:08.354Z,54.28
2022-09-10T11:28:08.357Z,53.61
2022-09-10T11:29:08.388Z,53.61
2022-09-10T11:30:10.830Z,53.84
2022-09-10T11:31:08.398Z,54.09
2022-09-10T11:32:08.365Z,53.40
2022-09-10T11:33:08.394Z,53.85
2022-09-10T11:34:08.424Z,53.85
2022-09-10T11:35:08.372Z,53.88
2022-09-10T11:36:08.386Z,53.67
2022-09-10T11:37:08.375Z,53.91
2022-09-10T11:39:08.424Z,53.96
2022-09-10T11:41:08.405Z,53.88
2022-09-10T11:42:08.408Z,54.46
2022-09-10T11:43:08.396Z,54.73
2022-09-10T11:44:08.419Z,54.73
2022-09-10T11:45:08.438Z,54.76
2022-09-10T11:46:08.425Z,54.97
2022-09-10T11:47:08.419Z,55.29
2022-09-10T11:48:08.419Z,55.59
2022-09-10T11:49:08.445Z,54.83
2022-09-10T11:50:08.431Z,54.26
2022-09-10T11:51:08.419Z,54.27
2022-09-10T11:52:08.420Z,54.27
2022-09-10T11:53:08.455Z,54.14
2022-09-10T11:54:08.451Z,54.14
2022-09-10T11:55:08.465Z,53.60
2022-09-10T11:56:08.463Z,53.60
2022-09-10T11:57:08.437Z,53.22
2022-09-10T11:58:08.462Z,52.58
2022-09-10T11:59:08.465Z,52.83
2022-09-10T12:00:08.454Z,51.56
2022-09-10T12:01:08.436Z,51.71
2022-09-10T12:02:08.495Z,51.75
2022-09-10T12:03:08.447Z,52.00
2022-09-10T12:04:08.506Z,51.11
2022-09-10T12:05:08.457Z,51.45
2022-09-10T12:06:08.487Z,50.66
2022-09-10T12:07:11.012Z,50.86
2022-09-10T12:08:08.462Z,50.86
2022-09-10T12:09:08.708Z,50.96
2022-09-10T12:10:13.523Z,49.80
2022-09-10T12:11:08.464Z,49.80
2022-09-10T12:12:08.496Z,49.84
2022-09-10T12:13:08.495Z,49.84
2022-09-10T12:14:08.505Z,49.45
2022-09-10T12:15:08.488Z,48.69
2022-09-10T12:16:08.526Z,48.50
2022-09-10T12:17:08.506Z,48.17
2022-09-10T12:18:08.528Z,48.17
2022-09-10T12:19:08.511Z,48.46
2022-09-10T12:20:08.505Z,46.96
2022-09-10T12:21:08.505Z,46.96
2022-09-10T12:22:08.499Z,46.59
2022-09-10T12:23:08.515Z,46.59
2022-09-10T12:24:08.551Z,46.58
2022-09-10T12:25:08.507Z,46.46
2022-09-10T12:26:08.517Z,46.46
2022-09-10T12:27:08.521Z,46.52
2022-09-10T12:28:08.592Z,46.50
2022-09-10T12:30:08.561Z,45.51
2022-09-10T12:31:08.581Z,43.83
2022-09-10T12:32:08.534Z,44.46
2022-09-10T12:33:08.558Z,45.58
2022-09-10T12:34:08.538Z,45.58
2022-09-10T12:35:08.567Z,44.02
2022-09-10T12:36:08.550Z,44.02
2022-09-10T12:37:08.544Z,46.45
2022-09-10T12:38:08.557Z,47.48
2022-09-10T12:39:08.543Z,47.48
2022-09-10T12:41:08.576Z,46.62
2022-09-10T12:42:08.547Z,46.26
2022-09-10T12:43:08.571Z,46.68
2022-09-10T12:44:11.246Z,45.93
2022-09-10T12:45:08.570Z,45.93
2022-09-10T12:46:08.661Z,46.27
2022-09-10T12:47:08.571Z,46.60
2022-09-10T12:48:08.556Z,46.60
2022-09-10T12:49:08.561Z,46.85
2022-09-10T12:50:08.590Z,46.25
2022-09-10T12:51:08.600Z,45.78
2022-09-10T12:52:08.571Z,45.63
2022-09-10T12:53:08.602Z,45.63
2022-09-10T12:54:08.589Z,45.45
2022-09-10T12:55:08.576Z,45.45
2022-09-10T12:56:10.889Z,45.81
2022-09-10T12:57:08.613Z,45.97
2022-09-10T12:58:08.605Z,45.88
2022-09-10T12:59:08.600Z,45.97
2022-09-10T13:00:08.605Z,46.35
2022-09-10T13:01:08.702Z,46.13
2022-09-10T13:02:08.716Z,46.18
2022-09-10T13:03:08.600Z,46.18
2022-09-10T13:04:08.618Z,46.51
2022-09-10T13:06:08.657Z,46.08
2022-09-10T13:07:08.605Z,46.08
2022-09-10T13:08:08.610Z,46.13
2022-09-10T13:09:08.633Z,46.43
2022-09-10T13:10:08.624Z,46.43
2022-09-10T13:12:08.671Z,46.60
2022-09-10T13:13:08.627Z,46.80
2022-09-10T13:14:08.637Z,47.25
2022-09-10T13:15:08.658Z,47.45
2022-09-10T13:16:08.688Z,47.45
2022-09-10T13:17:08.681Z,47.31
2022-09-10T13:18:08.651Z,46.75
2022-09-10T13:19:08.646Z,46.49
2022-09-10T13:20:08.649Z,46.68
2022-09-10T13:21:11.395Z,46.32
2022-09-10T13:22:08.707Z,46.15
2022-09-10T13:23:08.665Z,46.20
2022-09-10T13:24:08.647Z,46.20
2022-09-10T13:25:08.667Z,46.53
2022-09-10T13:26:08.672Z,46.53
2022-09-10T13:27:08.716Z,46.29
2022-09-10T13:28:08.683Z,45.45
2022-09-10T13:29:08.695Z,45.02
2022-09-10T13:31:08.732Z,45.10
2022-09-10T13:32:08.710Z,44.73
2022-09-10T13:35:08.689Z,44.84
2022-09-10T13:37:08.712Z,44.76
2022-09-10T13:38:08.698Z,44.50
2022-09-10T13:39:08.724Z,43.92
2022-09-10T13:40:08.805Z,43.92
2022-09-10T13:41:08.706Z,44.20
2022-09-10T13:42:08.748Z,44.20
2022-09-10T13:43:08.712Z,43.74
2022-09-10T13:44:08.754Z,43.74
2022-09-10T13:45:08.716Z,43.77
2022-09-10T13:46:08.756Z,43.26
2022-09-10T13:47:08.745Z,43.26
2022-09-10T13:48:08.734Z,43.06
2022-09-10T13:49:08.719Z,43.06
2022-09-10T13:50:08.719Z,43.33
2022-09-10T13:51:08.724Z,43.81
2022-09-10T13:52:08.754Z,44.06
2022-09-10T13:53:08.735Z,44.06
2022-09-10T13:55:08.740Z,43.99
2022-09-10T13:56:13.550Z,43.95
2022-09-10T13:58:11.633Z,43.83
2022-09-10T13:59:08.764Z,43.83
2022-09-10T14:00:08.755Z,43.72
2022-09-10T14:01:08.879Z,43.30
2022-09-10T14:03:08.766Z,43.67
2022-09-10T14:04:08.807Z,43.77
2022-09-10T14:05:08.777Z,43.92
2022-09-10T14:06:08.765Z,43.80
2022-09-10T14:07:08.765Z,43.43
2022-09-10T14:08:08.776Z,43.38
2022-09-10T14:09:08.795Z,43.52
2022-09-10T14:10:08.775Z,43.62
2022-09-10T14:11:08.778Z,42.90
2022-09-10T14:12:08.797Z,42.24
2022-09-10T14:13:08.783Z,42.56
2022-09-10T14:14:08.836Z,42.26
2022-09-10T14:16:08.869Z,42.43
2022-09-10T14:17:08.812Z,42.53
2022-09-10T14:18:08.822Z,42.70
2022-09-10T14:20:08.850Z,42.49
2022-09-10T14:21:08.803Z,42.49
2022-09-10T14:22:10.071Z,42.26
2022-09-10T14:23:08.802Z,42.53
2022-09-10T14:24:08.824Z,42.53
2022-09-10T14:25:08.853Z,43.00
2022-09-10T14:26:08.821Z,43.11
2022-09-10T14:27:08.815Z,43.19
2022-09-10T14:28:08.846Z,43.19
2022-09-10T14:29:08.834Z,43.05
2022-09-10T14:30:08.890Z,43.17
2022-09-10T14:31:08.873Z,43.17
2022-09-10T14:32:08.872Z,43.55
2022-09-10T14:33:08.844Z,43.55
2022-09-10T14:34:08.840Z,43.92
2022-09-10T14:35:11.822Z,44.40
2022-09-10T14:36:08.843Z,44.40
2022-09-10T14:37:08.860Z,44.99
2022-09-10T14:38:08.846Z,44.99
2022-09-10T14:39:08.852Z,45.09
2022-09-10T14:40:08.898Z,45.53
2022-09-10T14:41:09.020Z,45.53
2022-09-10T14:42:08.874Z,45.54
2022-09-10T14:43:08.865Z,45.84
2022-09-10T14:44:08.873Z,45.91
2022-09-10T14:45:08.885Z,46.15
2022-09-10T14:46:09.005Z,46.37
2022-09-10T14:47:08.887Z,46.51
2022-09-10T14:48:08.884Z,46.51
2022-09-10T14:49:08.881Z,46.44
2022-09-10T14:50:08.896Z,46.47
2022-09-10T14:51:08.923Z,46.70
2022-09-10T14:54:08.902Z,47.06
2022-09-10T14:55:08.883Z,47.06
2022-09-10T14:56:08.945Z,46.76
2022-09-10T14:57:08.923Z,46.85
2022-09-10T14:58:08.918Z,46.94
2022-09-10T14:59:08.906Z,46.94
2022-09-10T15:00:08.915Z,46.87
2022-09-10T15:01:08.986Z,46.73
2022-09-10T15:02:08.913Z,46.77
2022-09-10T15:03:08.930Z,46.36
2022-09-10T15:04:08.933Z,46.49
2022-09-10T15:05:08.988Z,46.49
2022-09-10T15:06:08.956Z,45.76
2022-09-10T15:08:08.923Z,45.79
2022-09-10T15:10:08.930Z,45.95
2022-09-10T15:11:09.203Z,46.17
2022-09-10T15:12:11.920Z,46.28
2022-09-10T15:13:08.967Z,46.28